Time;durP1;ratioP1;P1;durP2;ratioP2;P2;SDS_P1;SDS_P2;PMS_P1;PMS_P2;Temp;Humidity;BMP_temperature;BMP_pressure;BME280_temperature;BME280_humidity;BME280_pressure;Samples;Min_cycle;Max_cycle;Signal;HPM_P1;HPM_P2
2024/04/16 00:01:06;;;;;;;0.30;0.10;;;19.60;60.70;;;;;;5266684;26;19998;-67
2024/04/16 00:03:32;;;;;;;0.73;0.22;;;19.60;60.60;;;;;;5263086;26;20014;-67
2024/04/16 00:05:58;;;;;;;1.48;0.20;;;19.60;60.70;;;;;;5266204;26;20434;-68
2024/04/16 00:08:24;;;;;;;0.50;0.20;;;19.60;60.60;;;;;;5265833;26;20038;-67
2024/04/16 00:10:50;;;;;;;2.00;0.15;;;19.60;60.50;;;;;;5265425;26;20021;-67
2024/04/16 00:13:15;;;;;;;0.38;0.20;;;19.60;60.50;;;;;;5264730;26;20738;-67
2024/04/16 00:15:41;;;;;;;2.13;0.50;;;19.60;60.50;;;;;;5267308;26;20002;-67
2024/04/16 00:18:06;;;;;;;0.73;0.20;;;19.60;60.60;;;;;;5262708;26;20080;-68
2024/04/16 00:20:32;;;;;;;0.30;0.30;;;19.50;60.40;;;;;;5265675;26;20005;-70
2024/04/16 00:22:57;;;;;;;0.45;0.20;;;19.50;60.40;;;;;;5260701;26;20092;-69
2024/04/16 00:25:23;;;;;;;0.25;0.15;;;19.60;60.40;;;;;;5266192;26;20011;-67
2024/04/16 00:27:48;;;;;;;0.85;0.30;;;19.50;60.40;;;;;;5266083;26;19998;-68
2024/04/16 00:30:14;;;;;;;0.50;0.30;;;19.50;60.30;;;;;;5265480;26;20021;-68
2024/04/16 00:32:39;;;;;;;0.20;0.20;;;19.50;60.40;;;;;;5267081;26;19999;-67
2024/04/16 00:35:05;;;;;;;0.98;0.20;;;19.50;60.30;;;;;;5263165;26;20002;-68
2024/04/16 00:37:31;;;;;;;0.40;0.20;;;19.50;60.30;;;;;;5267179;26;20396;-67
2024/04/16 00:39:56;;;;;;;0.30;0.20;;;19.50;60.30;;;;;;5258512;26;20696;-67
2024/04/16 00:42:22;;;;;;;0.20;0.20;;;19.50;60.30;;;;;;5267328;26;20010;-68
2024/04/16 00:44:47;;;;;;;0.20;0.20;;;19.50;60.30;;;;;;5257369;26;20007;-67
2024/04/16 00:47:14;;;;;;;0.30;0.20;;;19.50;60.30;;;;;;5263739;26;20002;-68
2024/04/16 00:49:39;;;;;;;0.30;0.20;;;19.50;60.40;;;;;;5253859;26;20002;-68
2024/04/16 00:52:06;;;;;;;0.30;0.20;;;19.50;60.30;;;;;;5261857;26;20547;-68
2024/04/16 00:54:32;;;;;;;1.33;0.38;;;19.50;60.30;;;;;;5264210;26;20369;-67
2024/04/16 00:56:58;;;;;;;0.40;0.20;;;19.50;60.30;;;;;;5267800;26;20041;-68
2024/04/16 00:59:25;;;;;;;0.63;0.20;;;19.40;60.20;;;;;;5242765;26;20825;-68
2024/04/16 01:01:53;;;;;;;0.75;0.50;;;19.50;60.30;;;;;;5255952;26;20369;-67
2024/04/16 01:04:20;;;;;;;1.75;0.20;;;19.50;60.20;;;;;;5253989;26;20003;-66
2024/04/16 01:06:45;;;;;;;0.63;0.20;;;19.40;60.10;;;;;;5250118;26;20085;-68
2024/04/16 01:09:13;;;;;;;0.55;0.20;;;19.50;60.20;;;;;;5242277;26;20016;-68
2024/04/16 01:11:39;;;;;;;0.63;0.30;;;19.40;60.10;;;;;;5245511;26;20337;-68
2024/04/16 01:14:04;;;;;;;0.80;0.25;;;19.40;60.00;;;;;;5255113;26;19998;-68
2024/04/16 01:16:30;;;;;;;0.63;0.20;;;19.40;60.10;;;;;;5258592;26;20002;-68
2024/04/16 01:18:55;;;;;;;0.20;0.20;;;19.40;60.10;;;;;;5259165;26;20003;-68
2024/04/16 01:21:22;;;;;;;0.30;0.30;;;19.40;60.00;;;;;;5264812;26;20015;-68
2024/04/16 01:23:47;;;;;;;0.30;0.20;;;19.40;60.00;;;;;;5267957;26;20018;-68
2024/04/16 01:26:13;;;;;;;0.77;0.40;;;19.40;60.10;;;;;;5265560;26;20017;-68
2024/04/16 01:28:38;;;;;;;1.05;0.30;;;19.40;60.00;;;;;;5265305;26;20031;-68
2024/04/16 01:31:04;;;;;;;0.30;0.20;;;19.40;60.00;;;;;;5266299;26;20007;-69
2024/04/16 01:33:29;;;;;;;0.93;0.20;;;19.40;60.10;;;;;;5266356;26;20091;-69
2024/04/16 01:35:55;;;;;;;0.63;0.30;;;19.40;60.70;;;;;;5269000;26;20006;-67
2024/04/16 01:38:20;;;;;;;0.17;0.10;;;19.40;60.10;;;;;;5272553;26;20077;-68
2024/04/16 01:40:46;;;;;;;1.00;0.30;;;19.40;60.10;;;;;;5272640;26;20046;-68
2024/04/16 01:43:11;;;;;;;0.77;0.20;;;19.40;60.00;;;;;;5267731;26;20014;-68
2024/04/16 01:45:37;;;;;;;0.93;0.40;;;19.40;60.00;;;;;;5272647;26;20010;-67
2024/04/16 01:48:03;;;;;;;0.20;0.20;;;19.40;60.00;;;;;;5277580;26;20017;-68
2024/04/16 01:50:28;;;;;;;0.20;0.20;;;19.40;60.70;;;;;;5272805;26;20013;-68
2024/04/16 01:52:54;;;;;;;0.75;0.30;;;19.40;60.20;;;;;;5269244;26;20508;-67
2024/04/16 01:55:19;;;;;;;1.08;0.30;;;19.40;60.00;;;;;;5271022;26;20081;-67
2024/04/16 01:57:45;;;;;;;0.45;0.20;;;19.40;59.90;;;;;;5267265;26;20006;-68
2024/04/16 02:00:10;;;;;;;0.77;0.20;;;19.40;60.00;;;;;;5252768;26;20452;-68
2024/04/16 02:02:36;;;;;;;0.47;0.20;;;19.40;60.00;;;;;;5242545;26;20021;-68
2024/04/16 02:05:03;;;;;;;0.47;0.20;;;19.40;60.00;;;;;;5252067;26;20006;-67
2024/04/16 02:07:30;;;;;;;0.63;0.20;;;19.40;60.00;;;;;;5243373;26;20010;-68
2024/04/16 02:09:56;;;;;;;0.60;0.30;;;19.40;60.00;;;;;;5248418;26;20002;-68
2024/04/16 02:12:21;;;;;;;0.85;0.35;;;19.40;60.00;;;;;;5252453;26;20007;-67
2024/04/16 02:14:47;;;;;;;0.90;0.20;;;19.40;59.90;;;;;;5253505;26;20014;-64
2024/04/16 02:17:13;;;;;;;0.30;0.20;;;19.40;59.90;;;;;;5254950;26;20342;-68
2024/04/16 02:19:40;;;;;;;0.40;0.20;;;19.30;59.90;;;;;;5256464;26;20029;-68
2024/04/16 02:22:05;;;;;;;0.40;0.20;;;19.40;59.90;;;;;;5260239;26;20043;-65
2024/04/16 02:24:31;;;;;;;0.50;0.30;;;19.40;59.80;;;;;;5257366;26;20003;-66
2024/04/16 02:26:56;;;;;;;0.65;0.30;;;19.30;59.80;;;;;;5260420;26;20017;-68
2024/04/16 02:29:22;;;;;;;0.68;0.20;;;19.40;59.80;;;;;;5258636;26;19998;-68
2024/04/16 02:31:47;;;;;;;0.45;0.30;;;19.30;60.40;;;;;;5261968;26;20343;-68
2024/04/16 02:34:13;;;;;;;1.27;0.35;;;19.30;59.80;;;;;;5261025;26;20006;-67
2024/04/16 02:36:38;;;;;;;0.50;0.30;;;19.30;59.70;;;;;;5260558;26;20019;-66
2024/04/16 02:39:04;;;;;;;0.50;0.28;;;19.30;59.80;;;;;;5230394;26;20035;-67
2024/04/16 02:41:30;;;;;;;0.73;0.43;;;19.30;59.80;;;;;;5261133;26;20025;-68
2024/04/16 02:43:56;;;;;;;0.40;0.30;;;19.30;59.80;;;;;;5264050;26;20003;-65
2024/04/16 02:46:22;;;;;;;1.25;0.20;;;19.30;59.80;;;;;;5262516;26;20073;-68
2024/04/16 02:48:47;;;;;;;0.93;0.50;;;19.30;59.70;;;;;;5260324;26;20030;-67
2024/04/16 02:51:14;;;;;;;0.90;0.30;;;19.30;59.80;;;;;;5249022;26;20287;-68
2024/04/16 02:53:40;;;;;;;2.15;0.43;;;19.30;59.80;;;;;;5261919;26;20467;-68
2024/04/16 02:56:06;;;;;;;0.38;0.25;;;19.30;59.70;;;;;;5266509;26;20084;-68
2024/04/16 02:58:31;;;;;;;0.32;0.20;;;19.30;59.80;;;;;;5262501;26;20106;-68
2024/04/16 03:00:57;;;;;;;0.50;0.30;;;19.30;59.80;;;;;;5241181;26;20026;-67
2024/04/16 03:03:22;;;;;;;0.20;0.20;;;19.30;59.80;;;;;;5243267;26;20049;-68
2024/04/16 03:05:57;;;;;;;1.48;0.22;;;19.20;59.80;;;;;;5253306;26;20131;-68
2024/04/16 03:08:22;;;;;;;0.77;0.30;;;19.30;59.70;;;;;;5255049;26;20014;-68
2024/04/16 03:10:48;;;;;;;0.43;0.25;;;19.20;59.70;;;;;;5253506;26;20049;-68
2024/04/16 03:13:13;;;;;;;0.30;0.20;;;19.20;59.70;;;;;;5254381;26;20525;-67
2024/04/16 03:15:39;;;;;;;0.40;0.30;;;19.20;59.70;;;;;;5256677;26;20381;-67
2024/04/16 03:18:05;;;;;;;0.20;0.20;;;19.20;59.70;;;;;;5257321;26;20018;-67
2024/04/16 03:20:30;;;;;;;0.60;0.20;;;19.20;59.70;;;;;;5257669;26;20877;-68
2024/04/16 03:22:56;;;;;;;1.20;0.57;;;19.20;59.60;;;;;;5249043;26;20014;-68
2024/04/16 03:25:23;;;;;;;0.63;0.35;;;19.20;59.70;;;;;;5244406;26;20010;-68
2024/04/16 03:27:50;;;;;;;0.82;0.28;;;19.20;59.80;;;;;;5245460;26;20002;-67
2024/04/16 03:30:15;;;;;;;0.90;0.32;;;19.20;59.60;;;;;;5234147;26;20042;-68
2024/04/16 03:32:41;;;;;;;0.90;0.20;;;19.20;59.70;;;;;;5250249;26;20062;-68
2024/04/16 03:35:08;;;;;;;0.85;0.35;;;19.20;59.70;;;;;;5264667;26;20069;-67
2024/04/16 03:37:34;;;;;;;1.58;0.50;;;19.20;59.70;;;;;;5236842;26;20076;-66
2024/04/16 03:40:00;;;;;;;1.55;0.20;;;19.20;59.60;;;;;;5260801;26;20002;-67
2024/04/16 03:42:25;;;;;;;1.17;0.20;;;19.20;59.60;;;;;;5264493;26;20546;-66
2024/04/16 03:44:54;;;;;;;0.98;0.40;;;19.20;59.60;;;;;;5264422;26;19999;-67
2024/04/16 03:47:22;;;;;;;1.02;0.50;;;19.20;59.70;;;;;;5253743;26;20018;-65
2024/04/16 03:49:48;;;;;;;0.88;0.30;;;19.20;59.70;;;;;;5247828;26;19999;-67
2024/04/16 03:52:14;;;;;;;0.52;0.30;;;19.20;59.70;;;;;;5249435;26;20081;-66
2024/04/16 03:54:40;;;;;;;0.60;0.30;;;19.10;59.50;;;;;;5249153;26;20003;-67
2024/04/16 03:57:06;;;;;;;0.60;0.30;;;19.10;59.50;;;;;;5266049;26;20556;-68
2024/04/16 03:59:38;;;;;;;0.60;0.50;;;19.10;59.50;;;;;;5238701;26;20010;-67
2024/04/16 04:02:07;;;;;;;2.25;0.30;;;19.20;59.50;;;;;;5252839;26;20377;-68
2024/04/16 04:04:33;;;;;;;0.52;0.30;;;19.20;59.50;;;;;;5251129;26;20013;-67
2024/04/16 04:06:58;;;;;;;0.28;0.20;;;19.20;59.60;;;;;;5249251;26;20058;-67
2024/04/16 04:09:24;;;;;;;1.75;0.55;;;19.30;59.50;;;;;;5247503;26;20021;-67
2024/04/16 04:11:49;;;;;;;1.48;0.50;;;19.40;59.10;;;;;;5252987;26;20017;-67
2024/04/16 04:14:15;;;;;;;0.57;0.40;;;19.60;58.90;;;;;;5242475;26;20014;-66
2024/04/16 04:16:40;;;;;;;1.02;0.40;;;19.70;58.50;;;;;;5240109;26;20334;-67
2024/04/16 04:19:06;;;;;;;1.83;0.30;;;19.90;58.20;;;;;;5248599;26;20089;-67
2024/04/16 04:21:31;;;;;;;0.25;0.20;;;20.10;57.80;;;;;;5259415;26;20014;-67
2024/04/16 04:23:57;;;;;;;0.30;0.20;;;20.20;57.40;;;;;;5263223;26;20017;-67
2024/04/16 04:26:23;;;;;;;1.17;0.57;;;20.40;57.70;;;;;;5274369;26;20004;-66
2024/04/16 04:28:49;;;;;;;0.70;0.38;;;20.60;56.80;;;;;;5262092;26;20455;-66
2024/04/16 04:31:16;;;;;;;0.85;0.40;;;20.70;56.60;;;;;;5265719;26;20068;-67
2024/04/16 04:33:42;;;;;;;0.43;0.25;;;20.90;56.40;;;;;;5245849;26;20013;-67
2024/04/16 04:36:11;;;;;;;0.80;0.40;;;21.00;56.00;;;;;;5246183;26;20010;-68
2024/04/16 04:38:36;;;;;;;0.95;0.35;;;21.10;55.80;;;;;;5252217;26;20021;-66
2024/04/16 04:41:02;;;;;;;1.27;0.30;;;21.20;55.60;;;;;;5255484;26;20003;-67
2024/04/16 04:43:27;;;;;;;1.05;0.70;;;21.30;55.40;;;;;;5252513;26;20014;-66
2024/04/16 04:45:53;;;;;;;0.68;0.30;;;21.40;55.50;;;;;;5250087;26;20003;-67
2024/04/16 04:48:18;;;;;;;0.82;0.40;;;21.30;55.30;;;;;;5241274;26;20014;-68
2024/04/16 04:50:43;;;;;;;1.42;0.30;;;21.40;55.40;;;;;;5241710;26;19999;-67
2024/04/16 04:53:09;;;;;;;0.88;0.30;;;21.30;55.50;;;;;;5250085;26;20002;-66
2024/04/16 04:55:34;;;;;;;0.70;0.50;;;21.30;55.70;;;;;;5269595;26;20017;-67
2024/04/16 04:58:00;;;;;;;0.70;0.50;;;21.20;55.80;;;;;;5238402;26;20007;-67
2024/04/16 05:00:26;;;;;;;0.80;0.40;;;21.10;55.90;;;;;;5243297;26;20002;-68
2024/04/16 05:02:51;;;;;;;1.50;0.60;;;21.10;56.00;;;;;;5244658;26;20023;-67
2024/04/16 05:05:17;;;;;;;0.30;0.20;;;21.10;56.10;;;;;;5244531;26;20054;-70
2024/04/16 05:07:42;;;;;;;1.77;0.47;;;21.10;56.20;;;;;;5251072;26;20048;-68
2024/04/16 05:10:08;;;;;;;0.65;0.25;;;21.00;56.30;;;;;;5251119;26;20003;-68
2024/04/16 05:12:34;;;;;;;1.17;0.30;;;21.00;56.40;;;;;;5247898;27;20470;-68
2024/04/16 05:15:00;;;;;;;0.93;0.40;;;20.90;56.50;;;;;;5254151;26;20007;-69
2024/04/16 05:17:25;;;;;;;1.33;0.43;;;20.80;56.70;;;;;;5254699;26;20318;-68
2024/04/16 05:19:51;;;;;;;0.17;0.17;;;20.80;56.90;;;;;;5260455;26;20003;-69
2024/04/16 05:22:17;;;;;;;0.47;0.28;;;20.70;57.10;;;;;;5263604;26;20006;-67
2024/04/16 05:24:42;;;;;;;1.10;0.40;;;20.70;57.20;;;;;;5249559;26;20458;-68
2024/04/16 05:27:08;;;;;;;0.60;0.22;;;20.60;57.50;;;;;;5255099;26;20313;-69
2024/04/16 05:29:34;;;;;;;4.03;0.80;;;20.50;57.50;;;;;;5262365;26;20412;-67
2024/04/16 05:31:59;;;;;;;1.00;0.63;;;20.50;57.70;;;;;;5271211;26;20025;-71
2024/04/16 05:34:25;;;;;;;2.95;1.23;;;20.50;57.80;;;;;;5258390;26;20014;-67
2024/04/16 05:36:50;;;;;;;3.47;1.00;;;20.40;57.70;;;;;;5267581;26;20166;-67
2024/04/16 05:39:16;;;;;;;5.85;1.55;;;20.40;57.80;;;;;;5259060;26;20002;-69
2024/04/16 05:41:42;;;;;;;3.25;1.63;;;20.30;58.00;;;;;;5268550;26;20025;-68
2024/04/16 05:44:07;;;;;;;3.08;1.00;;;20.30;58.20;;;;;;5271109;26;20013;-66
2024/04/16 05:46:32;;;;;;;2.95;1.45;;;20.30;58.20;;;;;;5253792;26;20006;-67
2024/04/16 05:48:59;;;;;;;2.65;1.38;;;20.30;58.10;;;;;;5252117;26;20484;-69
2024/04/16 05:51:24;;;;;;;2.92;1.20;;;20.30;58.10;;;;;;5268433;26;20025;-68
2024/04/16 05:53:49;;;;;;;3.58;1.45;;;20.30;57.90;;;;;;5247515;26;20536;-66
2024/04/16 05:56:15;;;;;;;2.85;1.30;;;20.30;57.80;;;;;;5257782;26;20007;-69
2024/04/16 05:58:41;;;;;;;4.47;1.95;;;20.30;57.80;;;;;;5269179;26;20009;-69
2024/04/16 06:01:07;;;;;;;5.75;1.90;;;20.30;57.80;;;;;;5254362;26;20042;-69
2024/04/16 06:03:32;;;;;;;3.50;1.67;;;20.30;57.90;;;;;;5273682;26;20002;-69
2024/04/16 06:05:58;;;;;;;2.70;1.48;;;20.30;58.00;;;;;;5266232;26;20401;-67
2024/04/16 06:08:23;;;;;;;3.40;1.63;;;20.30;58.20;;;;;;5260191;26;20003;-70
2024/04/16 06:10:49;;;;;;;4.47;1.67;;;20.30;58.20;;;;;;5252861;26;20451;-66
2024/04/16 06:13:15;;;;;;;2.55;1.60;;;20.20;58.20;;;;;;5255910;26;20000;-70
2024/04/16 06:15:40;;;;;;;4.20;1.73;;;20.30;58.20;;;;;;5263878;26;20469;-67
2024/04/16 06:18:10;;;;;;;3.75;1.73;;;20.30;58.20;;;;;;5257246;26;21008;-68
2024/04/16 06:20:36;;;;;;;3.50;1.85;;;20.30;58.10;;;;;;5258478;26;20436;-66
2024/04/16 06:23:02;;;;;;;3.05;1.80;;;20.30;58.10;;;;;;5250624;26;20026;-69
2024/04/16 06:25:27;;;;;;;4.00;1.52;;;20.20;58.00;;;;;;5272104;26;20467;-68
2024/04/16 06:27:54;;;;;;;4.13;1.52;;;20.20;58.20;;;;;;5253650;26;20876;-69
2024/04/16 06:30:21;;;;;;;4.38;1.92;;;20.30;58.20;;;;;;5259136;26;20003;-68
2024/04/16 06:32:47;;;;;;;2.67;1.30;;;20.20;58.20;;;;;;5270031;26;20002;-68
2024/04/16 06:35:13;;;;;;;5.05;1.70;;;20.20;58.30;;;;;;5257270;26;19999;-68
2024/04/16 06:37:38;;;;;;;4.45;1.80;;;20.20;58.40;;;;;;5269668;26;20021;-68
2024/04/16 06:40:05;;;;;;;3.20;1.60;;;20.20;58.30;;;;;;5258375;26;20010;-68
2024/04/16 06:42:30;;;;;;;6.20;1.75;;;20.20;58.40;;;;;;5254772;26;20545;-68
2024/04/16 06:44:56;;;;;;;4.60;2.25;;;20.10;58.00;;;;;;5255997;26;20007;-71
2024/04/16 06:47:21;;;;;;;5.85;2.60;;;20.10;57.80;;;;;;5273202;26;20010;-69
2024/04/16 06:49:47;;;;;;;5.47;2.85;;;20.10;58.40;;;;;;5261430;26;20002;-68
2024/04/16 06:52:12;;;;;;;5.03;2.40;;;20.00;58.00;;;;;;5261439;26;20013;-68
2024/04/16 06:54:38;;;;;;;6.30;2.15;;;20.00;58.50;;;;;;5253296;26;20408;-68
2024/04/16 06:57:03;;;;;;;5.00;2.28;;;20.00;58.50;;;;;;5257933;26;20026;-68
2024/04/16 06:59:29;;;;;;;3.83;2.03;;;19.90;58.60;;;;;;5271506;26;20020;-66
2024/04/16 07:01:54;;;;;;;5.97;2.20;;;19.90;58.80;;;;;;5253869;26;20007;-67
2024/04/16 07:04:20;;;;;;;7.28;3.13;;;19.90;58.80;;;;;;5246824;26;20003;-69
2024/04/16 07:06:45;;;;;;;8.40;3.75;;;19.90;58.80;;;;;;5252218;26;20006;-69
2024/04/16 07:09:11;;;;;;;11.90;5.07;;;19.80;58.90;;;;;;5247249;26;19999;-68
2024/04/16 07:11:37;;;;;;;16.13;7.57;;;19.80;58.70;;;;;;5241816;26;20009;-67
2024/04/16 07:14:03;;;;;;;16.42;8.63;;;19.80;58.90;;;;;;5249090;26;20010;-67
2024/04/16 07:16:29;;;;;;;20.67;10.52;;;19.80;58.90;;;;;;5243846;26;20092;-68
2024/04/16 07:18:54;;;;;;;30.90;14.90;;;19.80;58.90;;;;;;5254003;26;20002;-68
2024/04/16 07:21:20;;;;;;;34.17;14.45;;;19.80;58.90;;;;;;5253898;26;20558;-67
2024/04/16 07:23:45;;;;;;;36.38;17.30;;;19.70;58.90;;;;;;5252244;26;20006;-67
2024/04/16 07:26:11;;;;;;;33.35;17.33;;;19.80;58.90;;;;;;5252338;26;20602;-68
2024/04/16 07:28:36;;;;;;;36.95;17.77;;;19.80;58.90;;;;;;5241250;26;20091;-67
2024/04/16 07:31:02;;;;;;;36.50;18.35;;;19.70;58.90;;;;;;5239505;26;20085;-67
2024/04/16 07:33:28;;;;;;;35.67;19.80;;;19.70;58.90;;;;;;5240713;26;20459;-68
2024/04/16 07:35:54;;;;;;;38.28;19.70;;;19.70;59.00;;;;;;5239976;26;20013;-68
2024/04/16 07:38:20;;;;;;;33.65;18.52;;;19.70;59.10;;;;;;5240116;26;20011;-68
2024/04/16 07:40:55;;;;;;;35.65;19.27;;;19.70;59.10;;;;;;5241018;26;20491;-68
2024/04/16 07:43:22;;;;;;;41.03;20.60;;;19.60;59.00;;;;;;5253442;26;20110;-68
2024/04/16 07:45:48;;;;;;;36.78;18.52;;;19.70;59.10;;;;;;5247202;26;19998;-68
2024/04/16 07:48:14;;;;;;;40.85;21.05;;;19.60;59.10;;;;;;5259466;26;20484;-68
2024/04/16 07:50:39;;;;;;;38.53;20.20;;;19.60;59.10;;;;;;5250085;26;20012;-66
2024/04/16 07:53:05;;;;;;;39.85;19.65;;;19.60;59.20;;;;;;5249908;26;20007;-67
2024/04/16 07:55:30;;;;;;;38.58;18.40;;;19.60;59.20;;;;;;5256929;26;20135;-69
2024/04/16 07:57:56;;;;;;;37.88;18.20;;;19.60;59.20;;;;;;5248305;26;20496;-69
2024/04/16 08:00:25;;;;;;;34.28;18.42;;;19.60;59.20;;;;;;5245801;26;20086;-69
2024/04/16 08:02:51;;;;;;;33.95;18.17;;;19.60;59.10;;;;;;5248973;26;20339;-69
2024/04/16 08:05:16;;;;;;;32.15;17.73;;;19.60;59.10;;;;;;5244218;26;20322;-69
2024/04/16 08:07:45;;;;;;;35.05;17.88;;;19.60;59.10;;;;;;5256580;26;20409;-68
2024/04/16 08:10:11;;;;;;;34.47;17.63;;;19.60;59.10;;;;;;5256293;26;20007;-67
2024/04/16 08:12:36;;;;;;;29.25;16.67;;;19.60;59.10;;;;;;5272674;26;20002;-69
2024/04/16 08:15:03;;;;;;;34.88;16.83;;;19.60;59.00;;;;;;5260232;26;20425;-69
2024/04/16 08:17:29;;;;;;;31.73;16.33;;;19.60;58.90;;;;;;5258294;26;20244;-69
2024/04/16 08:19:54;;;;;;;33.03;16.92;;;19.60;58.90;;;;;;5255113;26;20009;-69
2024/04/16 08:22:20;;;;;;;32.22;15.65;;;19.60;58.90;;;;;;5245373;26;20007;-70
2024/04/16 08:24:45;;;;;;;32.95;16.65;;;19.60;58.80;;;;;;5266819;26;20017;-69
2024/04/16 08:27:11;;;;;;;29.33;15.57;;;19.60;58.80;;;;;;5265099;26;20084;-68
2024/04/16 08:29:36;;;;;;;31.45;15.20;;;19.60;58.90;;;;;;5260914;26;20033;-68
2024/04/16 08:32:02;;;;;;;23.58;14.70;;;19.60;58.90;;;;;;5266503;26;20030;-69
2024/04/16 08:34:27;;;;;;;25.20;13.60;;;19.60;58.90;;;;;;5261113;26;20462;-69
2024/04/16 08:36:53;;;;;;;25.85;13.40;;;19.60;58.90;;;;;;5257810;26;20020;-70
2024/04/16 08:39:19;;;;;;;23.10;13.30;;;19.50;58.90;;;;;;5262083;26;20069;-67
2024/04/16 08:41:44;;;;;;;22.17;12.77;;;19.50;59.00;;;;;;5268856;26;20013;-68
2024/04/16 08:44:12;;;;;;;22.90;13.70;;;19.50;59.00;;;;;;5255477;26;20095;-69
2024/04/16 08:46:37;;;;;;;22.73;11.80;;;19.50;59.10;;;;;;5258010;26;20018;-68
2024/04/16 08:49:04;;;;;;;21.15;11.32;;;19.50;58.70;;;;;;5261469;26;20403;-69
2024/04/16 08:51:31;;;;;;;18.60;10.95;;;19.60;58.60;;;;;;5255735;26;20466;-71
2024/04/16 08:53:59;;;;;;;22.17;10.65;;;19.60;58.50;;;;;;5270873;26;20101;-69
2024/04/16 08:56:25;;;;;;;21.23;10.20;;;19.60;58.40;;;;;;5262660;26;20043;-68
2024/04/16 08:58:51;;;;;;;19.33;9.77;;;19.60;58.20;;;;;;5266470;26;20040;-69
2024/04/16 09:01:17;;;;;;;15.52;8.60;;;19.50;58.30;;;;;;5284966;26;20386;-70
2024/04/16 09:03:47;;;;;;;16.50;8.63;;;19.60;57.90;;;;;;5280414;26;20017;-69
2024/04/16 09:06:13;;;;;;;12.88;8.27;;;19.50;57.80;;;;;;5253286;26;20038;-69
2024/04/16 09:08:39;;;;;;;13.90;7.30;;;19.50;57.50;;;;;;5260620;26;20368;-68
2024/04/16 09:11:05;;;;;;;14.45;7.65;;;19.50;57.40;;;;;;5254573;26;20458;-68
2024/04/16 09:13:30;;;;;;;12.70;6.35;;;19.50;57.20;;;;;;5262928;26;19998;-68
2024/04/16 09:15:57;;;;;;;12.18;6.03;;;19.50;56.90;;;;;;5263297;26;19998;-69
2024/04/16 09:18:23;;;;;;;8.93;4.72;;;19.50;56.70;;;;;;5257435;26;20041;-69
2024/04/16 09:20:48;;;;;;;11.52;5.47;;;19.50;56.80;;;;;;5279418;26;20005;-68
2024/04/16 09:23:14;;;;;;;10.18;5.25;;;19.50;56.50;;;;;;5264487;26;20011;-69
2024/04/16 09:25:42;;;;;;;10.52;5.43;;;19.50;56.40;;;;;;5258054;26;20080;-68
2024/04/16 09:28:13;;;;;;;8.13;4.88;;;19.50;56.40;;;;;;5254284;26;20059;-69
2024/04/16 09:30:39;;;;;;;7.57;4.80;;;19.50;56.90;;;;;;5264110;26;20050;-69
2024/04/16 09:33:04;;;;;;;9.38;4.32;;;19.50;57.20;;;;;;5264606;26;20405;-70
2024/04/16 09:35:31;;;;;;;8.77;4.75;;;19.50;57.80;;;;;;5256137;26;20021;-69
2024/04/16 09:38:00;;;;;;;8.15;4.70;;;19.60;58.00;;;;;;5257589;26;20506;-69
2024/04/16 09:40:29;;;;;;;8.38;4.13;;;19.60;57.80;;;;;;5265376;26;20014;-69
2024/04/16 09:42:59;;;;;;;7.45;3.85;;;19.70;57.60;;;;;;5261868;26;20473;-69
2024/04/16 09:45:25;;;;;;;5.28;3.67;;;19.80;57.40;;;;;;5234460;26;20015;-67
2024/04/16 09:47:51;;;;;;;9.40;4.18;;;19.90;57.10;;;;;;5258394;26;20327;-69
2024/04/16 09:50:20;;;;;;;7.82;3.80;;;20.00;56.90;;;;;;5266110;26;20003;-69
2024/04/16 09:52:50;;;;;;;7.35;4.18;;;20.20;56.80;;;;;;5261877;26;20079;-69
2024/04/16 09:55:17;;;;;;;5.93;3.75;;;20.30;56.50;;;;;;5268071;26;20003;-68
2024/04/16 09:57:44;;;;;;;6.07;3.28;;;20.40;56.30;;;;;;5274955;26;20013;-69
2024/04/16 10:00:11;;;;;;;5.75;3.78;;;20.60;56.20;;;;;;5273576;26;20006;-68
2024/04/16 10:02:38;;;;;;;6.05;3.08;;;20.70;56.00;;;;;;5263850;26;20147;-69
2024/04/16 10:05:04;;;;;;;6.93;3.58;;;20.80;55.70;;;;;;5268157;26;20156;-68
2024/04/16 10:07:30;;;;;;;7.35;3.35;;;20.90;55.70;;;;;;5268738;26;20457;-69
2024/04/16 10:09:56;;;;;;;5.72;3.80;;;21.00;55.60;;;;;;5271822;26;20005;-69
2024/04/16 10:12:21;;;;;;;5.97;3.13;;;21.00;55.40;;;;;;5269240;26;20007;-67
2024/04/16 10:14:48;;;;;;;5.97;2.83;;;21.10;55.40;;;;;;5267221;26;20005;-69
2024/04/16 10:17:13;;;;;;;4.93;2.80;;;21.20;55.30;;;;;;5265932;26;21488;-69
2024/04/16 10:19:39;;;;;;;6.05;3.13;;;21.20;55.20;;;;;;5264249;26;20014;-68
2024/04/16 10:22:13;;;;;;;5.13;2.95;;;21.30;55.20;;;;;;5263562;26;20010;-69
2024/04/16 10:24:39;;;;;;;5.70;2.35;;;21.30;55.20;;;;;;5269411;26;20504;-68
2024/04/16 10:27:09;;;;;;;6.32;3.13;;;21.20;55.40;;;;;;5258150;26;20006;-68
2024/04/16 10:29:37;;;;;;;3.83;1.98;;;21.20;55.50;;;;;;5259128;26;20014;-68
2024/04/16 10:32:06;;;;;;;4.30;2.60;;;21.10;55.70;;;;;;5278184;26;20472;-69
2024/04/16 10:34:31;;;;;;;6.63;2.70;;;21.10;55.90;;;;;;5266498;26;20082;-68
2024/04/16 10:36:57;;;;;;;5.95;3.03;;;21.00;56.00;;;;;;5271007;26;20046;-69
2024/04/16 10:39:31;;;;;;;4.20;2.00;;;21.00;56.20;;;;;;5258734;26;20034;-68
2024/04/16 10:41:58;;;;;;;5.33;2.83;;;20.90;56.30;;;;;;5273189;26;20357;-69
2024/04/16 10:44:26;;;;;;;3.72;2.65;;;20.90;56.40;;;;;;5260191;26;20519;-69
2024/04/16 10:46:53;;;;;;;4.22;2.35;;;20.80;56.60;;;;;;5279701;26;20054;-69
2024/04/16 10:49:22;;;;;;;4.22;2.28;;;20.80;56.80;;;;;;5257552;26;20006;-68
2024/04/16 10:51:51;;;;;;;3.00;2.22;;;20.70;56.90;;;;;;5257617;26;20012;-68
2024/04/16 10:54:17;;;;;;;5.32;2.35;;;20.60;57.00;;;;;;5274822;26;20030;-68
2024/04/16 10:56:43;;;;;;;5.28;2.35;;;20.60;57.10;;;;;;5270412;26;20364;-70
2024/04/16 10:59:09;;;;;;;4.55;2.22;;;20.60;57.20;;;;;;5273737;26;20072;-69
2024/04/16 11:01:42;;;;;;;3.63;2.05;;;20.50;57.10;;;;;;5269265;26;20022;-68
2024/04/16 11:04:10;;;;;;;3.40;2.20;;;20.50;57.30;;;;;;5267894;26;20593;-68
2024/04/16 11:06:36;;;;;;;4.13;2.20;;;20.50;57.30;;;;;;5275060;26;19999;-68
2024/04/16 11:09:05;;;;;;;3.63;2.03;;;20.50;57.50;;;;;;5277012;26;20012;-69
2024/04/16 11:11:34;;;;;;;3.28;1.95;;;20.40;57.60;;;;;;5271713;26;20006;-69
2024/04/16 11:14:04;;;;;;;3.45;2.20;;;20.40;57.60;;;;;;5270171;26;20002;-68
2024/04/16 11:16:30;;;;;;;4.90;1.83;;;20.30;57.60;;;;;;5264750;26;20484;-68
2024/04/16 11:18:56;;;;;;;3.70;1.90;;;20.30;57.80;;;;;;5278790;26;20422;-69
2024/04/16 11:21:22;;;;;;;3.08;1.92;;;20.30;57.90;;;;;;5261535;26;19998;-68
2024/04/16 11:23:49;;;;;;;3.50;1.92;;;20.20;57.90;;;;;;5298453;26;20532;-68
2024/04/16 11:26:15;;;;;;;5.47;1.80;;;20.20;58.60;;;;;;5257116;26;20014;-68
2024/04/16 11:28:41;;;;;;;3.67;1.98;;;20.20;58.00;;;;;;5269221;26;20009;-68
2024/04/16 11:31:07;;;;;;;2.05;1.50;;;20.20;57.90;;;;;;5271539;26;20089;-69
2024/04/16 11:33:34;;;;;;;3.33;1.50;;;20.10;57.80;;;;;;5280831;26;20485;-68
2024/04/16 11:36:09;;;;;;;3.30;1.50;;;20.20;57.90;;;;;;5277001;26;20231;-69
2024/04/16 11:38:35;;;;;;;4.85;2.00;;;20.10;58.00;;;;;;5253316;26;20021;-68
2024/04/16 11:41:02;;;;;;;2.88;1.35;;;20.10;58.10;;;;;;5269848;26;20006;-68
2024/04/16 11:43:32;;;;;;;2.65;1.38;;;20.00;58.10;;;;;;5264158;26;19999;-69
2024/04/16 11:45:58;;;;;;;2.50;1.42;;;20.10;58.10;;;;;;5264958;26;19998;-69
2024/04/16 11:48:24;;;;;;;3.17;1.25;;;20.00;58.20;;;;;;5260657;26;20404;-69
2024/04/16 11:50:50;;;;;;;3.08;1.73;;;20.00;58.20;;;;;;5274430;26;20068;-69
2024/04/16 11:53:16;;;;;;;3.95;1.38;;;20.00;58.30;;;;;;5263384;26;20008;-68
2024/04/16 11:55:43;;;;;;;3.22;1.75;;;20.00;58.50;;;;;;5284517;26;20006;-66
2024/04/16 11:58:08;;;;;;;2.17;1.17;;;20.00;58.50;;;;;;5260060;26;20085;-71
2024/04/16 12:00:34;;;;;;;2.03;1.20;;;19.90;58.30;;;;;;5266538;26;20015;-69
2024/04/16 12:03:03;;;;;;;2.75;1.52;;;19.90;58.50;;;;;;5267630;26;20002;-69
2024/04/16 12:05:28;;;;;;;2.55;1.45;;;19.90;58.50;;;;;;5267965;26;20022;-68
2024/04/16 12:07:54;;;;;;;1.73;1.10;;;19.90;58.60;;;;;;5269683;26;20010;-70
2024/04/16 12:10:19;;;;;;;2.90;1.20;;;19.90;58.60;;;;;;5271639;26;20437;-68
2024/04/16 12:12:45;;;;;;;3.60;1.75;;;19.90;58.60;;;;;;5278833;26;20024;-68
2024/04/16 12:15:10;;;;;;;4.93;1.42;;;19.90;58.70;;;;;;5270056;26;20017;-68
2024/04/16 12:17:36;;;;;;;3.10;1.77;;;19.90;58.70;;;;;;5277504;26;20070;-67
2024/04/16 12:20:02;;;;;;;2.08;1.33;;;19.90;58.70;;;;;;5270064;26;20010;-68
2024/04/16 12:22:28;;;;;;;1.85;1.30;;;19.90;58.70;;;;;;5263886;26;19999;-68
2024/04/16 12:24:54;;;;;;;2.75;1.40;;;19.90;58.60;;;;;;5271487;26;19998;-69
2024/04/16 12:27:20;;;;;;;3.72;1.40;;;19.90;58.80;;;;;;5255043;26;20030;-67
2024/04/16 12:29:46;;;;;;;3.17;1.38;;;19.80;58.80;;;;;;5275573;26;20014;-69
2024/04/16 12:32:12;;;;;;;2.78;1.65;;;19.80;58.90;;;;;;5269452;26;20020;-68
2024/04/16 12:34:37;;;;;;;2.53;1.30;;;19.80;58.90;;;;;;5259882;26;20006;-68
2024/04/16 12:37:03;;;;;;;2.30;1.38;;;19.80;58.90;;;;;;5255929;26;20490;-68